Time,TemperatureF,DewpointF,PressureIn,WindDirection,WindDirectionDegrees,WindSpeedMPH,WindSpeedGustMPH,Humidity,HourlyPrecipIn,Conditions,Clouds,dailyrainin,SoftwareType,DateUTC
2013-04-20 00:01:00,44.0,37.0,30.28,WNW,284,10.0,17.0,75,0.00,,,0.02,,2013-04-20 07:01:00,
2013-04-20 00:11:00,44.0,37.0,30.28,WNW,284,10.0,17.0,75,0.00,,,0.02,,2013-04-20 07:11:00,
2013-04-20 00:21:00,44.0,36.0,30.28,West,260,13.0,20.0,73,0.00,,,0.02,,2013-04-20 07:21:00,
2013-04-20 00:31:00,44.0,36.0,30.29,West,268,13.0,24.0,73,0.00,,,0.02,,2013-04-20 07:31:00,
2013-04-20 00:42:00,44.0,36.0,30.29,West,261,7.0,18.0,72,0.00,,,0.02,,2013-04-20 07:42:00,
2013-04-20 00:52:00,44.0,36.0,30.29,West,261,7.0,18.0,72,0.00,,,0.02,,2013-04-20 07:52:00,
2013-04-20 01:01:00,44.0,36.0,30.30,WSW,250,4.0,12.0,73,0.00,,,0.02,,2013-04-20 08:01:00,
2013-04-20 01:11:00,44.0,36.0,30.30,WSW,250,4.0,12.0,73,0.00,,,0.02,,2013-04-20 08:11:00,
2013-04-20 01:21:00,43.0,35.0,30.31,West,275,3.0,7.0,74,0.00,,,0.02,,2013-04-20 08:21:00,
2013-04-20 01:31:00,43.0,35.0,30.31,WNW,287,6.0,10.0,73,0.00,,,0.02,,2013-04-20 08:31:00,
2013-04-20 01:42:00,43.0,35.0,30.31,WNW,287,6.0,10.0,73,0.00,,,0.02,,2013-04-20 08:42:00,
2013-04-20 01:52:00,42.0,35.0,30.31,NW,319,1.0,3.0,77,0.00,,,0.02,,2013-04-20 08:52:00,
2013-04-20 02:01:00,41.0,35.0,30.30,NW,319,3.0,5.0,79,0.00,,,0.02,,2013-04-20 09:01:00,
2013-04-20 02:11:00,41.0,35.0,30.30,NW,319,3.0,5.0,79,0.00,,,0.02,,2013-04-20 09:11:00,
2013-04-20 02:21:00,40.0,34.0,30.30,NW,319,2.0,3.0,80,0.00,,,0.02,,2013-04-20 09:21:00,
2013-04-20 02:32:00,40.0,34.0,30.30,NW,309,2.0,6.0,79,0.00,,,0.02,,2013-04-20 09:32:00,
2013-04-20 02:43:00,39.0,33.0,30.30,NW,309,1.0,2.0,80,0.00,,,0.02,,2013-04-20 09:43:00,
2013-04-20 02:53:00,39.0,33.0,30.30,NW,309,1.0,2.0,80,0.00,,,0.02,,2013-04-20 09:53:00,
2013-04-20 03:02:00,39.0,34.0,30.30,NW,309,3.0,3.0,82,0.00,,,0.02,,2013-04-20 10:02:00,
2013-04-20 03:12:00,39.0,34.0,30.30,NW,309,3.0,3.0,82,0.00,,,0.02,,2013-04-20 10:12:00,
2013-04-20 03:22:00,39.0,33.0,30.30,NW,305,6.0,12.0,80,0.00,,,0.02,,2013-04-20 10:22:00,
2013-04-20 03:32:00,39.0,33.0,30.31,West,259,6.0,7.0,79,0.00,,,0.02,,2013-04-20 10:32:00,
2013-04-20 03:42:00,39.0,33.0,30.31,West,263,1.0,5.0,79,0.00,,,0.02,,2013-04-20 10:42:00,
2013-04-20 03:52:00,39.0,33.0,30.31,West,263,1.0,5.0,79,0.00,,,0.02,,2013-04-20 10:52:00,
2013-04-20 04:02:00,36.0,31.0,30.31,West,263,3.0,5.0,83,0.00,,,0.02,,2013-04-20 11:02:00,
2013-04-20 04:12:00,36.0,32.0,30.31,West,263,0.0,1.0,84,0.00,,,0.02,,2013-04-20 11:12:00,
2013-04-20 04:22:00,36.0,32.0,30.31,West,263,0.0,1.0,84,0.00,,,0.02,,2013-04-20 11:22:00,
2013-04-20 04:31:00,35.0,31.0,30.32,West,263,1.0,3.0,85,0.00,,,0.02,,2013-04-20 11:31:00,
2013-04-20 04:42:00,35.0,31.0,30.32,West,263,1.0,3.0,85,0.00,,,0.02,,2013-04-20 11:42:00,
2013-04-20 04:52:00,37.0,33.0,30.32,SW,216,6.0,8.0,85,0.00,,,0.02,,2013-04-20 11:52:00,
2013-04-20 05:01:00,39.0,34.0,30.32,SW,229,5.0,8.0,82,0.00,,,0.02,,2013-04-20 12:01:00,
2013-04-20 05:11:00,39.0,34.0,30.32,SW,229,5.0,8.0,82,0.00,,,0.02,,2013-04-20 12:11:00,
2013-04-20 05:22:00,40.0,34.0,30.32,SSW,209,6.0,7.0,80,0.00,,,0.02,,2013-04-20 12:22:00,
2013-04-20 05:32:00,39.0,34.0,30.32,SSW,209,2.0,3.0,81,0.00,,,0.02,,2013-04-20 12:32:00,
2013-04-20 05:41:00,39.0,34.0,30.32,SSW,209,2.0,3.0,81,0.00,,,0.02,,2013-04-20 12:41:00,
2013-04-20 05:52:00,38.0,33.0,30.32,SSW,209,4.0,7.0,82,0.00,,,0.02,,2013-04-20 12:52:00,
2013-04-20 06:02:00,37.0,33.0,30.32,SSW,207,5.0,7.0,84,0.00,,,0.02,,2013-04-20 13:02:00,
2013-04-20 06:11:00,36.0,32.0,30.32,South,171,3.0,8.0,85,0.00,,,0.02,,2013-04-20 13:11:00,
2013-04-20 06:21:00,36.0,32.0,30.32,South,171,3.0,8.0,85,0.00,,,0.02,,2013-04-20 13:21:00,
2013-04-20 06:31:00,36.0,32.0,30.32,South,173,3.0,6.0,85,0.00,,,0.02,,2013-04-20 13:31:00,
2013-04-20 06:41:00,36.0,32.0,30.32,South,169,3.0,5.0,85,0.00,,,0.02,,2013-04-20 13:41:00,
2013-04-20 06:52:00,36.0,32.0,30.32,South,169,3.0,5.0,85,0.00,,,0.02,,2013-04-20 13:52:00,
2013-04-20 07:01:00,36.0,32.0,30.33,South,169,3.0,6.0,86,0.00,,,0.02,,2013-04-20 14:01:00,
2013-04-20 07:11:00,36.0,32.0,30.34,South,169,4.0,6.0,85,0.00,,,0.02,,2013-04-20 14:11:00,
2013-04-20 07:21:00,36.0,32.0,30.34,South,169,4.0,6.0,85,0.00,,,0.02,,2013-04-20 14:21:00,
2013-04-20 07:31:00,37.0,33.0,30.34,SSW,212,5.0,7.0,84,0.00,,,0.02,,2013-04-20 14:31:00,
2013-04-20 07:41:00,37.0,33.0,30.34,SSW,212,5.0,7.0,84,0.00,,,0.02,,2013-04-20 14:41:00,
2013-04-20 07:52:00,39.0,34.0,30.34,SSW,208,5.0,6.0,82,0.00,,,0.02,,2013-04-20 14:52:00,
2013-04-20 08:01:00,41.0,34.0,30.34,SSW,199,3.0,6.0,76,0.00,,,0.02,,2013-04-20 15:01:00,
2013-04-20 08:11:00,41.0,34.0,30.34,SSW,199,3.0,6.0,76,0.00,,,0.02,,2013-04-20 15:11:00,
2013-04-20 08:21:00,43.0,35.0,30.34,South,178,3.0,5.0,72,0.00,,,0.02,,2013-04-20 15:21:00,
2013-04-20 08:33:00,46.0,37.0,30.34,NW,304,1.0,8.0,70,0.00,,,0.02,,2013-04-20 15:33:00,
2013-04-20 08:43:00,47.0,37.0,30.34,WNW,296,4.0,8.0,67,0.00,,,0.02,,2013-04-20 15:43:00,
2013-04-20 09:03:00,50.0,34.0,30.33,WNW,282,10.0,18.0,55,0.00,,,0.01,,2013-04-20 16:03:00,
2013-04-20 09:12:00,51.0,34.0,30.33,West,280,12.0,16.0,52,0.00,,,0.01,,2013-04-20 16:12:00,
2013-04-20 09:32:00,52.0,33.0,30.33,WNW,292,10.0,17.0,48,0.00,,,0.00,,2013-04-20 16:32:00,
2013-04-20 09:41:00,52.0,32.0,30.32,WNW,290,11.0,20.0,47,0.00,,,0.00,,2013-04-20 16:41:00,
2013-04-20 09:52:00,52.0,32.0,30.32,WNW,290,11.0,20.0,47,0.00,,,0.00,,2013-04-20 16:52:00,
2013-04-20 10:02:00,54.0,33.0,30.32,West,265,9.0,14.0,45,0.00,,,0.00,,2013-04-20 17:02:00,
2013-04-20 10:11:00,54.0,33.0,30.32,WNW,294,6.0,14.0,45,0.00,,,0.00,,2013-04-20 17:11:00,
2013-04-20 10:22:00,54.0,33.0,30.32,WNW,294,6.0,14.0,45,0.00,,,0.00,,2013-04-20 17:22:00,
2013-04-20 10:32:00,55.0,34.0,30.32,West,276,7.0,12.0,45,0.00,,,0.00,,2013-04-20 17:32:00,
2013-04-20 10:41:00,55.0,34.0,30.32,West,276,7.0,12.0,45,0.00,,,0.00,,2013-04-20 17:41:00,
2013-04-20 10:52:00,56.0,34.0,30.32,WNW,288,9.0,16.0,43,0.00,,,0.00,,2013-04-20 17:52:00,
2013-04-20 11:01:00,56.0,32.0,30.32,WNW,296,9.0,14.0,40,0.00,,,0.00,,2013-04-20 18:01:00,
2013-04-20 11:12:00,57.0,32.0,30.32,West,265,10.0,17.0,39,0.00,,,0.00,,2013-04-20 18:12:00,
2013-04-20 11:22:00,57.0,32.0,30.32,West,265,10.0,17.0,39,0.00,,,0.00,,2013-04-20 18:22:00,
2013-04-20 11:32:00,57.0,32.0,30.32,WNW,300,10.0,20.0,39,0.00,,,0.00,,2013-04-20 18:32:00,
2013-04-20 11:41:00,57.0,32.0,30.32,WNW,300,10.0,20.0,39,0.00,,,0.00,,2013-04-20 18:41:00,
2013-04-20 11:52:00,57.0,30.0,30.32,WNW,299,13.0,22.0,35,0.00,,,0.00,,2013-04-20 18:52:00,
2013-04-20 12:01:00,58.0,30.0,30.32,NW,315,14.0,20.0,34,0.00,,,0.00,,2013-04-20 19:01:00,
2013-04-20 12:11:00,59.0,33.0,30.32,WNW,297,10.0,18.0,37,0.00,,,0.00,,2013-04-20 19:11:00,
2013-04-20 12:21:00,59.0,33.0,30.32,WNW,297,10.0,18.0,37,0.00,,,0.00,,2013-04-20 19:21:00,
2013-04-20 12:31:00,58.0,34.0,30.31,WNW,289,12.0,18.0,40,0.00,,,0.00,,2013-04-20 19:31:00,
2013-04-20 12:41:00,58.0,33.0,30.31,NW,325,10.0,20.0,39,0.00,,,0.00,,2013-04-20 19:41:00,
2013-04-20 12:52:00,58.0,33.0,30.31,NW,325,10.0,20.0,39,0.00,,,0.00,,2013-04-20 19:52:00,
2013-04-20 13:01:00,59.0,33.0,30.30,NW,320,10.0,16.0,38,0.00,,,0.00,,2013-04-20 20:01:00,
2013-04-20 13:11:00,59.0,35.0,30.30,NW,308,11.0,20.0,41,0.00,,,0.00,,2013-04-20 20:11:00,
2013-04-20 13:21:00,59.0,35.0,30.30,NW,308,11.0,20.0,41,0.00,,,0.00,,2013-04-20 20:21:00,
2013-04-20 13:32:00,60.0,33.0,30.29,WNW,302,10.0,18.0,36,0.00,,,0.00,,2013-04-20 20:32:00,
2013-04-20 13:42:00,60.0,33.0,30.29,WNW,302,10.0,18.0,36,0.00,,,0.00,,2013-04-20 20:42:00,
2013-04-20 13:52:00,60.0,34.0,30.29,NW,305,11.0,17.0,37,0.00,,,0.00,,2013-04-20 20:52:00,
2013-04-20 14:01:00,60.0,34.0,30.29,WNW,282,9.0,18.0,37,0.00,,,0.00,,2013-04-20 21:01:00,
2013-04-20 14:12:00,60.0,33.0,30.28,WNW,301,8.0,15.0,36,0.00,,,0.00,,2013-04-20 21:12:00,
2013-04-20 14:21:00,60.0,33.0,30.28,WNW,301,8.0,15.0,36,0.00,,,0.00,,2013-04-20 21:21:00,
2013-04-20 14:32:00,62.0,35.0,30.28,NW,306,10.0,17.0,36,0.00,,,0.00,,2013-04-20 21:32:00,
2013-04-20 14:42:00,62.0,35.0,30.28,NW,306,10.0,17.0,36,0.00,,,0.00,,2013-04-20 21:42:00,
2013-04-20 14:52:00,61.0,34.0,30.28,WNW,299,10.0,16.0,36,0.00,,,0.00,,2013-04-20 21:52:00,
2013-04-20 15:02:00,61.0,36.0,30.28,WNW,289,13.0,21.0,39,0.00,,,0.00,,2013-04-20 22:02:00,
2013-04-20 15:12:00,60.0,36.0,30.28,NW,315,10.0,20.0,41,0.00,,,0.00,,2013-04-20 22:12:00,
2013-04-20 15:22:00,60.0,36.0,30.28,NW,315,10.0,20.0,41,0.00,,,0.00,,2013-04-20 22:22:00,
2013-04-20 15:32:00,60.0,35.0,30.27,NW,313,11.0,17.0,39,0.00,,,0.00,,2013-04-20 22:32:00,
2013-04-20 15:41:00,60.0,35.0,30.27,NW,313,11.0,17.0,39,0.00,,,0.00,,2013-04-20 22:41:00,
2013-04-20 15:52:00,60.0,36.0,30.27,WNW,291,11.0,20.0,40,0.00,,,0.00,,2013-04-20 22:52:00,
2013-04-20 16:02:00,61.0,36.0,30.26,NNW,329,13.0,20.0,40,0.00,,,0.00,,2013-04-20 23:02:00,
2013-04-20 16:11:00,60.0,36.0,30.26,WNW,287,9.0,16.0,40,0.00,,,0.00,,2013-04-20 23:11:00,
2013-04-20 16:22:00,60.0,36.0,30.26,WNW,287,9.0,16.0,40,0.00,,,0.00,,2013-04-20 23:22:00,
2013-04-20 16:31:00,60.0,36.0,30.26,NW,320,11.0,17.0,40,0.00,,,0.00,,2013-04-20 23:31:00,
2013-04-20 16:41:00,60.0,36.0,30.26,NW,320,11.0,17.0,40,0.00,,,0.00,,2013-04-20 23:41:00,
2013-04-20 16:52:00,60.0,35.0,30.26,WNW,302,13.0,20.0,39,0.00,,,0.00,,2013-04-20 23:52:00,
2013-04-20 17:01:00,60.0,36.0,30.27,West,274,11.0,17.0,41,0.00,,,0.00,,2013-04-21 00:01:00,
2013-04-20 17:11:00,60.0,36.0,30.27,West,274,11.0,17.0,41,0.00,,,0.00,,2013-04-21 00:11:00,
2013-04-20 17:21:00,58.0,34.0,30.26,WNW,287,10.0,18.0,41,0.00,,,0.00,,2013-04-21 00:21:00,
2013-04-20 17:31:00,59.0,35.0,30.26,NW,312,12.0,20.0,41,0.00,,,0.00,,2013-04-21 00:31:00,
2013-04-20 17:41:00,59.0,35.0,30.26,NW,312,12.0,20.0,41,0.00,,,0.00,,2013-04-21 00:41:00,
2013-04-20 17:51:00,58.0,36.0,30.25,NW,317,7.0,15.0,44,0.00,,,0.00,,2013-04-21 00:51:00,
2013-04-20 18:01:00,57.0,36.0,30.25,WNW,297,9.0,14.0,45,0.00,,,0.00,,2013-04-21 01:01:00,
2013-04-20 18:11:00,57.0,36.0,30.25,WNW,297,9.0,14.0,45,0.00,,,0.00,,2013-04-21 01:11:00,
2013-04-20 18:21:00,57.0,36.0,30.25,WNW,290,9.0,14.0,45,0.00,,,0.00,,2013-04-21 01:21:00,
2013-04-20 18:31:00,55.0,34.0,30.25,WNW,299,7.0,17.0,45,0.00,,,0.00,,2013-04-21 01:31:00,
2013-04-20 18:41:00,55.0,34.0,30.25,WNW,299,7.0,17.0,45,0.00,,,0.00,,2013-04-21 01:41:00,
2013-04-20 18:52:00,55.0,36.0,30.25,WNW,296,9.0,17.0,48,0.00,,,0.00,,2013-04-21 01:52:00,
2013-04-20 19:01:00,54.0,36.0,30.25,West,279,10.0,21.0,50,0.00,,,0.00,,2013-04-21 02:01:00,
2013-04-20 19:11:00,54.0,36.0,30.25,West,279,10.0,21.0,50,0.00,,,0.00,,2013-04-21 02:11:00,
2013-04-20 19:21:00,53.0,36.0,30.24,West,280,10.0,14.0,52,0.00,,,0.00,,2013-04-21 02:21:00,
2013-04-20 19:31:00,52.0,36.0,30.25,WNW,294,9.0,17.0,54,0.00,,,0.00,,2013-04-21 02:31:00,
2013-04-20 19:41:00,52.0,36.0,30.25,WNW,294,9.0,17.0,54,0.00,,,0.00,,2013-04-21 02:41:00,
2013-04-20 19:51:00,51.0,36.0,30.25,WNW,285,9.0,16.0,56,0.00,,,0.00,,2013-04-21 02:51:00,
2013-04-20 20:01:00,50.0,36.0,30.25,West,273,10.0,15.0,58,0.00,,,0.00,,2013-04-21 03:01:00,
2013-04-20 20:11:00,50.0,36.0,30.25,West,273,10.0,15.0,58,0.00,,,0.00,,2013-04-21 03:11:00,
2013-04-20 20:21:00,49.0,36.0,30.25,West,277,9.0,13.0,60,0.00,,,0.00,,2013-04-21 03:21:00,
2013-04-20 20:32:00,49.0,36.0,30.25,WNW,282,9.0,17.0,61,0.00,,,0.00,,2013-04-21 03:32:00,
2013-04-20 20:42:00,49.0,36.0,30.25,WNW,282,9.0,17.0,61,0.00,,,0.00,,2013-04-21 03:42:00,
2013-04-20 20:52:00,48.0,36.0,30.26,West,271,6.0,12.0,62,0.00,,,0.00,,2013-04-21 03:52:00,
2013-04-20 21:02:00,47.0,35.0,30.26,WNW,288,6.0,12.0,63,0.00,,,0.00,,2013-04-21 04:02:00,
2013-04-20 21:12:00,47.0,36.0,30.27,WNW,299,6.0,10.0,65,0.00,,,0.00,,2013-04-21 04:12:00,
2013-04-20 21:22:00,47.0,36.0,30.27,WNW,299,6.0,10.0,65,0.00,,,0.00,,2013-04-21 04:22:00,
2013-04-20 21:32:00,46.0,36.0,30.27,NNE,15,5.0,7.0,67,0.00,,,0.00,,2013-04-21 04:32:00,
2013-04-20 21:42:00,46.0,36.0,30.27,NNE,15,5.0,7.0,67,0.00,,,0.00,,2013-04-21 04:42:00,
2013-04-20 21:53:00,45.0,35.0,30.28,NNW,336,3.0,7.0,68,0.00,,,0.00,,2013-04-21 04:53:00,
2013-04-20 22:02:00,45.0,35.0,30.28,NNW,336,5.0,6.0,69,0.00,,,0.00,,2013-04-21 05:02:00,
2013-04-20 22:12:00,45.0,35.0,30.28,NNW,336,5.0,6.0,69,0.00,,,0.00,,2013-04-21 05:12:00,
2013-04-20 22:21:00,44.0,35.0,30.29,NW,309,4.0,7.0,71,0.00,,,0.00,,2013-04-21 05:21:00,
2013-04-20 22:32:00,43.0,35.0,30.28,NW,309,2.0,3.0,74,0.00,,,0.00,,2013-04-21 05:32:00,
2013-04-20 22:42:00,43.0,35.0,30.28,NW,309,2.0,3.0,74,0.00,,,0.00,,2013-04-21 05:42:00,
2013-04-20 22:52:00,43.0,35.0,30.28,NW,307,4.0,6.0,74,0.00,,,0.00,,2013-04-21 05:52:00,
2013-04-20 23:01:00,42.0,35.0,30.28,NW,307,0.0,3.0,75,0.00,,,0.00,,2013-04-21 06:01:00,
2013-04-20 23:11:00,41.0,34.0,30.28,NW,307,1.0,2.0,77,0.00,,,0.00,,2013-04-21 06:11:00,
2013-04-20 23:21:00,41.0,34.0,30.28,NW,307,1.0,2.0,77,0.00,,,0.00,,2013-04-21 06:21:00,
2013-04-20 23:32:00,41.0,35.0,30.28,NW,307,2.0,3.0,79,0.00,,,0.00,,2013-04-21 06:32:00,
2013-04-20 23:42:00,41.0,35.0,30.28,NW,307,2.0,3.0,79,0.00,,,0.00,,2013-04-21 06:42:00,
2013-04-20 23:52:00,40.0,34.0,30.28,NW,307,2.0,3.0,80,0.00,,,0.00,,2013-04-21 06:52:00,